createdAt,value
2019-04-30T00:00:00.322Z,31.30
2019-04-30T00:02:42.391Z,29.80
2019-04-30T00:05:17.365Z,29.70
2019-04-30T00:07:41.430Z,34.83
2019-04-30T00:10:10.324Z,32.65
2019-04-30T00:12:39.692Z,32.67
2019-04-30T00:15:10.992Z,31.75
2019-04-30T00:17:38.729Z,30.37
2019-04-30T00:20:09.361Z,33.25
2019-04-30T00:22:39.330Z,31.57
2019-04-30T00:25:08.498Z,31.42
2019-04-30T00:27:40.348Z,29.00
2019-04-30T00:30:09.248Z,32.48
2019-04-30T00:32:43.498Z,33.55
2019-04-30T00:35:11.826Z,31.15
2019-04-30T00:37:44.945Z,36.35
2019-04-30T00:40:15.383Z,34.90
2019-04-30T00:42:45.663Z,31.42
2019-04-30T00:45:15.428Z,30.45
2019-04-30T00:47:47.914Z,31.80
2019-04-30T00:50:16.676Z,29.42
2019-04-30T00:52:57.858Z,34.30
2019-04-30T00:55:32.437Z,33.20
2019-04-30T00:58:01.062Z,30.20
2019-04-30T01:00:31.361Z,29.63
2019-04-30T01:03:07.871Z,31.80
2019-04-30T01:05:39.554Z,29.95
2019-04-30T01:08:07.204Z,33.02
2019-04-30T01:10:35.763Z,32.65
2019-04-30T01:13:08.063Z,29.92
2019-04-30T01:15:34.588Z,28.40
2019-04-30T01:18:03.201Z,27.07
2019-04-30T01:20:32.909Z,30.40
2019-04-30T01:23:03.018Z,27.93
2019-04-30T01:25:32.053Z,28.57
2019-04-30T01:28:00.756Z,29.37
2019-04-30T01:30:30.215Z,29.32
2019-04-30T01:33:00.950Z,28.27
2019-04-30T01:35:35.986Z,26.20
2019-04-30T01:38:11.072Z,28.60
2019-04-30T01:40:42.811Z,27.13
2019-04-30T01:43:12.864Z,27.98
2019-04-30T01:45:41.440Z,30.10
2019-04-30T01:48:12.814Z,26.00
2019-04-30T01:50:42.066Z,30.55
2019-04-30T01:53:18.495Z,26.55
2019-04-30T01:55:59.191Z,26.75
2019-04-30T01:58:33.500Z,28.10
2019-04-30T02:01:06.599Z,30.40
2019-04-30T02:03:35.312Z,29.37
2019-04-30T02:06:03.987Z,32.00
2019-04-30T02:08:32.575Z,31.27
2019-04-30T02:11:01.159Z,28.87
2019-04-30T02:13:35.583Z,27.45
2019-04-30T02:16:04.298Z,27.02
2019-04-30T02:18:32.883Z,29.23
2019-04-30T02:21:01.555Z,29.00
2019-04-30T02:23:30.187Z,29.30
2019-04-30T02:25:59.560Z,29.27
2019-04-30T02:28:29.030Z,26.80
2019-04-30T02:31:00.427Z,27.82
2019-04-30T02:33:30.719Z,29.77
2019-04-30T02:36:03.768Z,29.30
2019-04-30T02:38:33.985Z,31.90
2019-04-30T02:41:03.535Z,27.35
2019-04-30T02:43:33.809Z,30.65
2019-04-30T02:46:09.689Z,28.35
2019-04-30T02:48:42.976Z,28.98
2019-04-30T02:51:14.007Z,32.75
2019-04-30T02:54:11.040Z,26.73
2019-04-30T02:56:41.106Z,27.85
2019-04-30T02:59:10.408Z,29.65
2019-04-30T03:01:40.200Z,27.77
2019-04-30T03:04:09.972Z,28.52
2019-04-30T03:06:40.261Z,27.98
2019-04-30T03:09:10.355Z,28.98
2019-04-30T03:11:40.537Z,26.33
2019-04-30T03:14:10.611Z,27.20
2019-04-30T03:17:00.137Z,26.48
2019-04-30T03:19:40.344Z,26.87
2019-04-30T03:22:20.891Z,25.20
2019-04-30T03:24:50.155Z,23.67
2019-04-30T03:27:21.096Z,27.25
2019-04-30T03:29:50.342Z,24.20
2019-04-30T03:32:22.271Z,25.27
2019-04-30T03:34:51.802Z,24.67
2019-04-30T03:37:20.678Z,25.48
2019-04-30T03:40:22.536Z,24.70
2019-04-30T03:42:54.233Z,23.15
2019-04-30T03:45:30.162Z,21.82
2019-04-30T03:48:01.563Z,20.40
2019-04-30T03:50:49.268Z,20.88
2019-04-30T03:53:15.800Z,22.58
2019-04-30T03:55:56.815Z,25.07
2019-04-30T03:58:43.043Z,24.15
2019-04-30T04:01:15.311Z,21.30
2019-04-30T04:04:00.707Z,20.48
2019-04-30T04:06:31.250Z,19.92
2019-04-30T04:09:10.477Z,20.50
2019-04-30T04:11:51.300Z,20.72
2019-04-30T04:14:20.866Z,24.20
2019-04-30T04:17:12.274Z,19.12
2019-04-30T04:19:41.072Z,21.27
2019-04-30T04:22:15.813Z,20.32
2019-04-30T04:25:00.094Z,18.70
2019-04-30T04:27:40.436Z,20.92
2019-04-30T04:30:29.540Z,18.42
2019-04-30T04:32:59.942Z,18.98
2019-04-30T04:35:29.910Z,21.43
2019-04-30T04:38:00.445Z,19.37
2019-04-30T04:40:46.163Z,19.48
2019-04-30T04:43:32.776Z,22.62
2019-04-30T04:46:12.583Z,20.37
2019-04-30T04:49:12.090Z,19.07
2019-04-30T04:51:42.059Z,19.70
2019-04-30T04:54:34.596Z,19.10
2019-04-30T04:57:14.944Z,20.02
2019-04-30T04:59:42.466Z,16.62
2019-04-30T05:02:35.088Z,19.55
2019-04-30T05:05:19.342Z,17.73
2019-04-30T05:08:00.229Z,19.65
2019-04-30T05:10:35.264Z,18.35
2019-04-30T05:13:09.070Z,18.85
2019-04-30T05:16:00.659Z,16.82
2019-04-30T05:21:03.805Z,17.27
2019-04-30T05:23:35.393Z,17.10
2019-04-30T05:26:04.169Z,19.82
2019-04-30T05:28:39.359Z,18.20
2019-04-30T05:31:08.762Z,19.73
2019-04-30T05:33:39.087Z,19.82
2019-04-30T05:36:09.317Z,17.70
2019-04-30T05:38:39.155Z,17.02
2019-04-30T05:41:09.301Z,18.10
2019-04-30T05:43:38.700Z,19.65
2019-04-30T05:46:11.048Z,22.77
2019-04-30T05:48:56.001Z,22.45
2019-04-30T05:51:28.933Z,19.20
2019-04-30T05:54:04.457Z,20.97
2019-04-30T05:56:36.578Z,20.52
2019-04-30T05:59:09.018Z,19.25
2019-04-30T06:01:47.864Z,19.82
2019-04-30T06:04:19.285Z,21.25
2019-04-30T06:07:03.237Z,23.15
2019-04-30T06:09:45.474Z,19.65
2019-04-30T06:12:28.422Z,21.40
2019-04-30T06:15:13.915Z,22.25
2019-04-30T06:17:57.929Z,21.80
2019-04-30T06:20:20.825Z,19.90
2019-04-30T06:22:54.650Z,21.52
2019-04-30T06:25:37.274Z,19.42
2019-04-30T06:28:04.124Z,21.62
2019-04-30T06:30:41.687Z,20.90
2019-04-30T06:33:12.552Z,23.42
2019-04-30T06:35:49.069Z,22.05
2019-04-30T06:38:20.581Z,24.27
2019-04-30T06:40:51.457Z,24.27
2019-04-30T06:43:21.680Z,23.55
2019-04-30T06:45:51.266Z,24.40
2019-04-30T06:48:20.777Z,22.73
2019-04-30T06:50:55.302Z,24.10
2019-04-30T06:53:23.937Z,20.37
2019-04-30T06:55:53.724Z,20.68
2019-04-30T06:58:26.489Z,21.45
2019-04-30T07:00:55.780Z,20.10
2019-04-30T07:03:24.884Z,20.70
2019-04-30T07:06:04.672Z,22.32
2019-04-30T07:08:39.129Z,21.95
2019-04-30T07:11:12.643Z,25.08
2019-04-30T07:13:44.803Z,22.98
2019-04-30T07:16:13.627Z,22.60
2019-04-30T07:18:45.510Z,27.25
2019-04-30T07:23:49.238Z,23.22
2019-04-30T07:26:24.890Z,24.52
2019-04-30T07:29:04.272Z,25.85
2019-04-30T07:31:36.327Z,26.02
2019-04-30T07:34:09.546Z,25.17
2019-04-30T07:36:48.425Z,24.75
2019-04-30T07:39:13.852Z,23.90
2019-04-30T07:41:49.491Z,25.27
2019-04-30T07:44:30.957Z,23.83
2019-04-30T07:46:49.327Z,24.02
2019-04-30T07:49:20.996Z,23.38
2019-04-30T07:54:32.159Z,24.98
2019-04-30T07:57:04.231Z,25.82
2019-04-30T07:59:40.529Z,25.75
2019-04-30T08:02:14.851Z,26.55
2019-04-30T08:04:44.743Z,27.10
2019-04-30T08:07:13.867Z,28.15
2019-04-30T08:09:42.893Z,26.97
2019-04-30T08:12:25.973Z,27.15
2019-04-30T08:14:49.612Z,26.15
2019-04-30T08:17:24.556Z,29.05
2019-04-30T08:19:53.516Z,26.02
2019-04-30T08:22:23.791Z,25.80
2019-04-30T08:24:52.925Z,24.85
2019-04-30T08:27:25.995Z,26.57
2019-04-30T08:29:55.322Z,25.15
2019-04-30T08:32:24.755Z,25.97
2019-04-30T08:34:54.028Z,27.45
2019-04-30T08:37:22.748Z,25.60
2019-04-30T08:39:52.883Z,27.00
2019-04-30T08:42:30.717Z,25.92
2019-04-30T08:44:52.576Z,25.85
2019-04-30T08:47:26.172Z,27.80
2019-04-30T08:50:02.481Z,24.05
2019-04-30T08:52:35.819Z,24.37
2019-04-30T08:55:16.449Z,27.52
2019-04-30T08:57:46.882Z,28.35
2019-04-30T09:00:16.887Z,27.35
2019-04-30T09:02:49.163Z,26.95
2019-04-30T09:05:30.710Z,26.40
2019-04-30T09:07:59.824Z,28.00
2019-04-30T09:10:29.485Z,27.05
2019-04-30T09:13:04.228Z,26.93
2019-04-30T09:15:33.094Z,30.15
2019-04-30T09:18:20.624Z,27.73
2019-04-30T09:20:50.259Z,25.00
2019-04-30T09:23:19.279Z,23.27
2019-04-30T09:25:49.685Z,25.10
2019-04-30T09:28:19.875Z,24.57
2019-04-30T09:30:48.715Z,25.23
2019-04-30T09:33:19.395Z,23.20
2019-04-30T09:35:49.571Z,23.95
2019-04-30T09:38:19.514Z,27.00
2019-04-30T09:40:50.582Z,24.40
2019-04-30T09:43:20.951Z,25.47
2019-04-30T09:45:50.540Z,28.20
2019-04-30T09:48:25.695Z,27.60
2019-04-30T09:50:56.847Z,26.52
2019-04-30T09:55:59.520Z,27.45
2019-04-30T09:58:41.007Z,26.60
2019-04-30T10:03:39.341Z,29.35
2019-04-30T10:06:09.058Z,28.52
2019-04-30T10:08:47.824Z,31.48
2019-04-30T10:11:16.121Z,28.77
2019-04-30T10:13:44.832Z,30.52
2019-04-30T10:16:21.306Z,28.50
2019-04-30T10:18:50.086Z,34.75
2019-04-30T10:21:19.127Z,31.02
2019-04-30T10:23:49.812Z,36.05
2019-04-30T10:26:19.774Z,35.30
2019-04-30T10:28:58.575Z,38.20
2019-04-30T10:31:29.304Z,39.55
2019-04-30T10:33:58.633Z,39.97
2019-04-30T10:36:29.428Z,39.70
2019-04-30T10:38:59.507Z,34.88
2019-04-30T10:41:28.933Z,37.80
2019-04-30T10:43:59.198Z,35.83
2019-04-30T10:46:28.000Z,29.90
2019-04-30T10:48:56.730Z,33.48
2019-04-30T10:51:28.875Z,35.08
2019-04-30T10:53:59.201Z,33.35
2019-04-30T10:56:29.228Z,32.70
2019-04-30T10:58:57.998Z,35.63
2019-04-30T11:01:33.260Z,31.60
2019-04-30T11:04:08.400Z,35.73
2019-04-30T11:06:37.535Z,36.77
2019-04-30T11:09:12.182Z,33.92
2019-04-30T11:11:41.041Z,33.42
2019-04-30T11:14:09.705Z,35.40
2019-04-30T11:16:38.462Z,36.42
2019-04-30T11:19:09.242Z,35.10
2019-04-30T11:21:38.110Z,34.75
2019-04-30T11:24:09.183Z,34.73
2019-04-30T11:26:40.032Z,36.23
2019-04-30T11:29:08.063Z,36.50
2019-04-30T11:31:38.438Z,37.35
2019-04-30T11:34:07.779Z,39.20
2019-04-30T11:36:38.896Z,37.42
2019-04-30T11:39:11.033Z,36.53
2019-04-30T11:41:41.139Z,37.90
2019-04-30T11:44:30.288Z,34.55
2019-04-30T11:47:01.676Z,34.75
2019-04-30T11:49:30.416Z,34.60
2019-04-30T11:51:59.306Z,36.38
2019-04-30T11:54:29.720Z,35.55
2019-04-30T11:56:58.857Z,35.05
2019-04-30T11:59:29.624Z,36.77
2019-04-30T12:01:59.900Z,34.40
2019-04-30T12:04:29.889Z,37.60
2019-04-30T12:07:01.561Z,32.00
2019-04-30T12:12:21.010Z,39.08
2019-04-30T12:14:50.199Z,38.28
2019-04-30T12:17:19.774Z,37.38
2019-04-30T12:19:48.818Z,37.75
2019-04-30T12:22:20.116Z,40.20
2019-04-30T12:25:02.029Z,36.55
2019-04-30T12:27:20.948Z,38.75
2019-04-30T12:29:49.806Z,34.73
2019-04-30T12:32:21.931Z,36.93
2019-04-30T12:34:51.680Z,37.93
2019-04-30T12:37:20.598Z,42.90
2019-04-30T12:39:49.533Z,37.10
2019-04-30T12:42:18.946Z,39.03
2019-04-30T12:44:53.816Z,39.48
2019-04-30T12:47:29.488Z,40.95
2019-04-30T12:50:01.047Z,31.70
2019-04-30T12:52:34.829Z,40.43
2019-04-30T12:55:15.170Z,38.48
2019-04-30T12:57:41.534Z,39.15
2019-04-30T13:02:39.903Z,38.48
2019-04-30T13:05:08.958Z,37.38
2019-04-30T13:07:39.842Z,35.95
2019-04-30T13:10:09.586Z,38.02
2019-04-30T13:12:39.312Z,34.60
2019-04-30T13:15:16.733Z,37.70
2019-04-30T13:17:58.549Z,36.38
2019-04-30T13:20:45.598Z,38.45
2019-04-30T13:23:14.810Z,36.98
2019-04-30T13:25:51.281Z,35.10
2019-04-30T13:28:20.093Z,37.53
2019-04-30T13:30:49.525Z,37.67
2019-04-30T13:33:20.521Z,32.60
2019-04-30T13:35:49.307Z,38.20
2019-04-30T13:38:22.483Z,35.85
2019-04-30T13:40:52.820Z,35.52
2019-04-30T13:43:40.205Z,40.63
2019-04-30T13:46:08.979Z,39.70
2019-04-30T13:48:43.407Z,36.80
2019-04-30T13:51:14.173Z,39.50
2019-04-30T13:53:44.902Z,39.38
2019-04-30T13:56:13.613Z,41.23
2019-04-30T13:58:42.203Z,42.73
2019-04-30T14:01:10.890Z,38.08
2019-04-30T14:03:50.029Z,38.35
2019-04-30T14:06:20.324Z,36.68
2019-04-30T14:08:53.837Z,41.15
2019-04-30T14:11:24.561Z,41.65
2019-04-30T14:13:53.280Z,40.00
2019-04-30T14:16:22.119Z,41.05
2019-04-30T14:18:50.832Z,44.70
2019-04-30T14:21:32.290Z,40.00
2019-04-30T14:23:51.922Z,36.58
2019-04-30T14:26:20.782Z,39.92
2019-04-30T14:28:51.895Z,42.15
2019-04-30T14:31:20.932Z,39.95
2019-04-30T14:33:52.133Z,42.25
2019-04-30T14:36:20.858Z,43.60
2019-04-30T14:38:49.453Z,42.98
2019-04-30T14:41:18.512Z,46.08
2019-04-30T14:43:58.358Z,43.42
2019-04-30T14:46:50.146Z,42.55
2019-04-30T14:49:26.798Z,45.70
2019-04-30T14:51:55.963Z,44.15
2019-04-30T14:54:32.333Z,42.67
2019-04-30T14:57:02.644Z,49.50
2019-04-30T14:59:39.224Z,50.30
2019-04-30T15:02:12.433Z,46.00
2019-04-30T15:04:41.383Z,49.80
2019-04-30T15:07:10.413Z,54.55
2019-04-30T15:09:42.432Z,45.80
2019-04-30T15:12:11.151Z,44.15
2019-04-30T15:14:41.040Z,42.45
2019-04-30T15:17:09.749Z,47.10
2019-04-30T15:19:44.343Z,44.65
2019-04-30T15:22:13.196Z,44.70
2019-04-30T15:24:41.853Z,39.25
2019-04-30T15:27:10.471Z,45.95
2019-04-30T15:29:40.104Z,40.85
2019-04-30T15:32:08.832Z,45.70
2019-04-30T15:34:40.849Z,51.13
2019-04-30T15:37:19.226Z,45.90
2019-04-30T15:39:42.944Z,47.55
2019-04-30T15:42:11.852Z,47.75
2019-04-30T15:44:43.266Z,48.48
2019-04-30T15:47:28.788Z,48.43
2019-04-30T15:50:19.521Z,41.23
2019-04-30T15:52:55.279Z,42.35
2019-04-30T15:55:34.506Z,44.80
2019-04-30T15:58:05.247Z,45.70
2019-04-30T16:00:37.204Z,47.93
2019-04-30T16:03:09.403Z,41.75
2019-04-30T16:05:42.537Z,43.20
2019-04-30T16:08:19.730Z,43.02
2019-04-30T16:11:07.102Z,41.08
2019-04-30T16:13:53.875Z,43.68
2019-04-30T16:16:45.614Z,43.40
2019-04-30T16:19:14.398Z,45.23
2019-04-30T16:21:44.255Z,41.75
2019-04-30T16:24:14.752Z,44.58
2019-04-30T16:26:49.608Z,43.60
2019-04-30T16:29:14.831Z,43.33
2019-04-30T16:31:49.305Z,46.60
2019-04-30T16:34:17.914Z,40.35
2019-04-30T16:36:49.028Z,37.67
2019-04-30T16:39:18.673Z,40.63
2019-04-30T16:41:49.094Z,34.45
2019-04-30T16:44:19.259Z,40.90
2019-04-30T16:46:49.531Z,41.48
2019-04-30T16:49:19.040Z,47.23
2019-04-30T16:51:50.458Z,41.68
2019-04-30T16:54:19.140Z,39.23
2019-04-30T16:56:56.421Z,42.83
2019-04-30T16:59:32.040Z,40.15
2019-04-30T17:02:00.909Z,42.50
2019-04-30T17:04:31.336Z,41.48
2019-04-30T17:07:23.728Z,40.95
2019-04-30T17:10:05.392Z,39.05
2019-04-30T17:12:51.193Z,45.73
2019-04-30T17:15:21.698Z,37.73
2019-04-30T17:17:50.612Z,41.83
2019-04-30T17:20:20.915Z,42.65
2019-04-30T17:22:52.621Z,37.23
2019-04-30T17:25:21.605Z,40.60
2019-04-30T17:27:55.719Z,39.50
2019-04-30T17:30:49.020Z,37.50
2019-04-30T17:33:20.826Z,40.55
2019-04-30T17:35:49.939Z,40.60
2019-04-30T17:38:18.519Z,37.80
2019-04-30T17:40:49.489Z,39.95
2019-04-30T17:43:17.681Z,43.85
2019-04-30T17:45:46.492Z,42.83
2019-04-30T17:48:21.252Z,42.75
2019-04-30T17:50:49.956Z,38.33
2019-04-30T17:53:19.459Z,42.25
2019-04-30T17:55:49.075Z,42.27
2019-04-30T17:58:20.434Z,37.88
2019-04-30T18:00:52.167Z,38.45
2019-04-30T18:03:20.849Z,41.40
2019-04-30T18:05:51.002Z,41.10
2019-04-30T18:08:20.054Z,41.48
2019-04-30T18:10:49.480Z,39.50
2019-04-30T18:13:19.707Z,38.02
2019-04-30T18:15:48.776Z,34.27
2019-04-30T18:18:19.245Z,39.03
2019-04-30T18:20:49.949Z,34.92
2019-04-30T18:23:32.704Z,32.30
2019-04-30T18:26:05.662Z,34.85
2019-04-30T18:28:34.878Z,34.73
2019-04-30T18:31:10.647Z,37.78
2019-04-30T18:33:39.922Z,43.40
2019-04-30T18:36:09.587Z,40.12
2019-04-30T18:38:39.200Z,39.25
2019-04-30T18:41:09.436Z,39.05
2019-04-30T18:43:40.503Z,38.83
2019-04-30T18:46:10.734Z,41.37
2019-04-30T18:48:40.055Z,44.65
2019-04-30T18:51:23.737Z,43.13
2019-04-30T18:53:39.789Z,45.67
2019-04-30T18:56:14.718Z,41.48
2019-04-30T18:58:43.154Z,44.33
2019-04-30T19:01:12.942Z,42.13
2019-04-30T19:03:41.810Z,44.48
2019-04-30T19:06:22.505Z,43.83
2019-04-30T19:08:44.507Z,45.45
2019-04-30T19:11:24.108Z,44.53
2019-04-30T19:13:57.152Z,46.90
2019-04-30T19:16:33.949Z,45.70
2019-04-30T19:19:06.413Z,44.25
2019-04-30T19:21:35.607Z,48.38
2019-04-30T19:24:04.419Z,46.08
2019-04-30T19:26:33.100Z,48.28
2019-04-30T19:29:02.885Z,49.25
2019-04-30T19:31:34.276Z,49.30
2019-04-30T19:34:03.030Z,49.95
2019-04-30T19:36:37.403Z,53.13
2019-04-30T19:39:05.693Z,49.55
2019-04-30T19:41:40.012Z,51.85
2019-04-30T19:44:08.837Z,55.48
2019-04-30T19:46:37.614Z,55.08
2019-04-30T19:49:06.242Z,51.28
2019-04-30T19:51:35.015Z,51.68
2019-04-30T19:54:03.718Z,50.20
2019-04-30T19:56:32.966Z,53.23
2019-04-30T19:59:05.445Z,56.50
2019-04-30T20:01:32.948Z,52.98
2019-04-30T20:04:02.210Z,55.48
2019-04-30T20:06:31.178Z,52.93
2019-04-30T20:09:00.757Z,52.88
2019-04-30T20:11:29.802Z,56.20
2019-04-30T20:13:59.688Z,58.30
2019-04-30T20:16:31.448Z,55.30
2019-04-30T20:19:00.407Z,56.42
2019-04-30T20:21:45.790Z,59.18
2019-04-30T20:24:04.463Z,57.33
2019-04-30T20:26:43.546Z,64.12
2019-04-30T20:29:13.406Z,60.30
2019-04-30T20:31:42.241Z,55.23
2019-04-30T20:34:11.086Z,60.92
2019-04-30T20:36:39.985Z,59.13
2019-04-30T20:39:23.005Z,59.63
2019-04-30T20:41:52.790Z,59.80
2019-04-30T20:44:22.801Z,57.10
2019-04-30T20:46:51.501Z,59.35
2019-04-30T20:49:20.306Z,52.60
2019-04-30T20:51:55.585Z,54.50
2019-04-30T20:54:21.611Z,58.78
2019-04-30T20:56:56.160Z,56.13
2019-04-30T20:59:33.280Z,53.90
2019-04-30T21:02:05.388Z,54.53
2019-04-30T21:04:40.147Z,55.43
2019-04-30T21:07:09.436Z,54.27
2019-04-30T21:09:38.325Z,54.25
2019-04-30T21:12:08.857Z,61.83
2019-04-30T21:14:38.503Z,55.35
2019-04-30T21:17:08.003Z,55.15
2019-04-30T21:19:39.018Z,50.48
2019-04-30T21:22:09.532Z,54.08
2019-04-30T21:24:40.186Z,51.95
2019-04-30T21:27:09.196Z,53.78
2019-04-30T21:29:40.643Z,52.62
2019-04-30T21:32:21.365Z,55.00
2019-04-30T21:34:54.813Z,56.13
2019-04-30T21:37:23.730Z,46.30
2019-04-30T21:39:52.280Z,51.08
2019-04-30T21:42:20.961Z,50.15
2019-04-30T21:44:49.556Z,52.62
2019-04-30T21:47:18.339Z,49.73
2019-04-30T21:49:47.122Z,53.87
2019-04-30T21:52:15.937Z,55.75
2019-04-30T21:54:44.697Z,54.18
2019-04-30T21:57:13.623Z,50.10
2019-04-30T21:59:48.756Z,53.68
2019-04-30T22:02:19.053Z,54.45
2019-04-30T22:04:48.325Z,56.68
2019-04-30T22:07:19.347Z,54.30
2019-04-30T22:09:47.922Z,52.35
2019-04-30T22:12:19.163Z,57.67
2019-04-30T22:14:48.248Z,55.33
2019-04-30T22:17:19.170Z,59.13
2019-04-30T22:19:49.137Z,59.23
2019-04-30T22:22:19.285Z,55.43
2019-04-30T22:24:49.670Z,54.27
2019-04-30T22:27:18.296Z,57.95
2019-04-30T22:29:47.976Z,56.83
2019-04-30T22:32:20.090Z,61.60
2019-04-30T22:34:48.827Z,55.33
2019-04-30T22:37:19.616Z,62.80
2019-04-30T22:39:56.341Z,57.43
2019-04-30T22:42:32.856Z,64.10
2019-04-30T22:45:04.409Z,64.40
2019-04-30T22:47:35.736Z,62.15
2019-04-30T22:50:06.962Z,60.12
2019-04-30T22:55:13.950Z,61.20
2019-04-30T22:57:46.706Z,59.27
2019-04-30T23:00:18.215Z,61.73
2019-04-30T23:02:48.501Z,64.55
2019-04-30T23:05:17.648Z,65.20
2019-04-30T23:07:46.367Z,62.88
2019-04-30T23:10:16.696Z,71.07
2019-04-30T23:12:45.842Z,63.40
2019-04-30T23:15:18.142Z,64.05
2019-04-30T23:17:49.559Z,65.37
2019-04-30T23:23:00.593Z,67.27
2019-04-30T23:25:39.173Z,68.03
2019-04-30T23:28:10.414Z,65.62
2019-04-30T23:30:41.045Z,74.37
2019-04-30T23:33:10.262Z,74.27
2019-04-30T23:35:39.164Z,72.03
2019-04-30T23:38:07.854Z,80.03
2019-04-30T23:40:51.858Z,74.20
2019-04-30T23:43:26.405Z,74.97
2019-04-30T23:45:56.992Z,69.85
2019-04-30T23:48:25.999Z,76.07
2019-04-30T23:50:54.769Z,75.67
2019-04-30T23:53:23.541Z,71.62
2019-04-30T23:55:55.778Z,71.62
2019-04-30T23:58:31.072Z,68.17
